createdAt,value
2018-03-27T00:01:42.969Z,48.17
2018-03-27T00:04:11.142Z,48.07
2018-03-27T00:06:39.819Z,48.73
2018-03-27T00:09:08.609Z,47.43
2018-03-27T00:11:37.035Z,48.83
2018-03-27T00:14:05.932Z,47.60
2018-03-27T00:16:34.812Z,49.93
2018-03-27T00:19:03.561Z,47.47
2018-03-27T00:21:32.104Z,49.13
2018-03-27T00:24:00.340Z,49.67
2018-03-27T00:26:28.350Z,47.70
2018-03-27T00:29:08.253Z,50.00
2018-03-27T00:31:48.709Z,47.80
2018-03-27T00:34:28.404Z,50.67
2018-03-27T00:37:11.387Z,47.30
2018-03-27T00:39:51.831Z,46.57
2018-03-27T00:42:33.824Z,48.70
2018-03-27T00:45:05.586Z,47.37
2018-03-27T00:47:33.762Z,46.00
2018-03-27T00:50:02.359Z,46.93
2018-03-27T00:52:30.914Z,47.20
2018-03-27T00:54:58.877Z,46.80
2018-03-27T00:57:27.046Z,46.77
2018-03-27T00:59:54.746Z,47.93
2018-03-27T01:02:22.786Z,48.33
2018-03-27T01:04:50.523Z,50.83
2018-03-27T01:07:18.746Z,50.23
2018-03-27T01:09:46.738Z,47.87
2018-03-27T01:12:14.726Z,49.87
2018-03-27T01:14:44.262Z,48.33
2018-03-27T01:17:12.221Z,50.13
2018-03-27T01:19:40.126Z,51.53
2018-03-27T01:22:08.276Z,50.10
2018-03-27T01:24:36.224Z,51.13
2018-03-27T01:27:04.367Z,49.07
2018-03-27T01:29:32.279Z,50.97
2018-03-27T01:32:00.960Z,51.07
2018-03-27T01:34:28.971Z,47.93
2018-03-27T01:36:56.885Z,49.67
2018-03-27T01:39:24.846Z,48.50
2018-03-27T01:41:54.582Z,46.13
2018-03-27T01:44:22.967Z,46.83
2018-03-27T01:46:50.931Z,46.20
2018-03-27T01:49:18.837Z,45.80
2018-03-27T01:51:46.684Z,47.93
2018-03-27T01:54:14.733Z,46.90
2018-03-27T01:56:42.683Z,45.43
2018-03-27T01:59:10.503Z,48.23
2018-03-27T02:01:38.417Z,47.17
2018-03-27T02:04:06.275Z,46.43
2018-03-27T02:06:34.053Z,47.77
2018-03-27T02:09:02.218Z,48.00
2018-03-27T02:11:35.613Z,49.17
2018-03-27T02:14:09.261Z,49.67
2018-03-27T02:16:42.670Z,49.83
2018-03-27T02:19:16.180Z,49.57
2018-03-27T02:21:47.259Z,47.53
2018-03-27T02:24:15.933Z,47.97
2018-03-27T02:26:45.346Z,50.30
2018-03-27T02:29:15.104Z,48.53
2018-03-27T02:31:43.112Z,48.43
2018-03-27T02:34:12.707Z,49.73
2018-03-27T02:36:40.813Z,51.33
2018-03-27T02:39:09.707Z,51.73
2018-03-27T02:41:37.559Z,51.20
2018-03-27T02:44:05.507Z,50.23
2018-03-27T02:46:33.682Z,51.07
2018-03-27T02:49:03.172Z,50.97
2018-03-27T02:51:31.158Z,51.17
2018-03-27T02:54:00.214Z,51.93
2018-03-27T02:56:28.148Z,48.80
2018-03-27T02:58:56.200Z,47.87
2018-03-27T03:01:24.160Z,49.57
2018-03-27T03:03:51.915Z,52.03
2018-03-27T03:06:20.002Z,50.13
2018-03-27T03:08:47.998Z,49.90
2018-03-27T03:11:16.059Z,50.83
2018-03-27T03:13:44.116Z,49.73
2018-03-27T03:16:12.739Z,51.03
2018-03-27T03:18:40.793Z,50.47
2018-03-27T03:21:09.433Z,50.67
2018-03-27T03:23:37.179Z,51.07
2018-03-27T03:26:06.099Z,49.67
2018-03-27T03:28:35.071Z,49.90
2018-03-27T03:31:03.914Z,50.17
2018-03-27T03:33:31.751Z,51.03
2018-03-27T03:36:00.201Z,51.93
2018-03-27T03:38:28.035Z,50.30
2018-03-27T03:40:55.838Z,49.53
2018-03-27T03:43:23.666Z,50.17
2018-03-27T03:45:52.171Z,50.70
2018-03-27T03:48:19.909Z,49.73
2018-03-27T03:50:47.676Z,51.30
2018-03-27T03:53:15.603Z,52.70
2018-03-27T03:55:44.790Z,48.93
2018-03-27T03:58:13.975Z,49.60
2018-03-27T04:00:41.661Z,48.67
2018-03-27T04:03:10.442Z,49.77
2018-03-27T04:05:41.254Z,49.83
2018-03-27T04:08:10.233Z,49.77
2018-03-27T04:10:38.555Z,50.03
2018-03-27T04:13:06.385Z,49.53
2018-03-27T04:15:35.368Z,50.80
2018-03-27T04:18:03.465Z,49.27
2018-03-27T04:20:34.090Z,49.23
2018-03-27T04:23:02.284Z,49.73
2018-03-27T04:25:30.087Z,49.63
2018-03-27T04:27:58.277Z,48.97
2018-03-27T04:30:26.098Z,48.73
2018-03-27T04:32:54.079Z,51.03
2018-03-27T04:35:22.800Z,49.57
2018-03-27T04:37:50.571Z,49.40
2018-03-27T04:40:19.092Z,51.63
2018-03-27T04:42:47.015Z,49.03
2018-03-27T04:45:14.865Z,51.93
2018-03-27T04:47:42.731Z,48.63
2018-03-27T04:50:10.716Z,50.23
2018-03-27T04:52:39.375Z,51.83
2018-03-27T04:55:07.423Z,50.77
2018-03-27T04:57:35.601Z,50.50
2018-03-27T05:00:03.670Z,49.00
2018-03-27T05:02:31.474Z,50.77
2018-03-27T05:04:59.410Z,50.87
2018-03-27T05:07:27.436Z,49.13
2018-03-27T05:09:55.587Z,51.43
2018-03-27T05:12:23.555Z,50.23
2018-03-27T05:14:51.675Z,49.20
2018-03-27T05:17:19.897Z,52.27
2018-03-27T05:19:48.704Z,49.50
2018-03-27T05:22:16.495Z,49.47
2018-03-27T05:24:44.161Z,50.70
2018-03-27T05:27:11.880Z,50.67
2018-03-27T05:29:39.733Z,51.23
2018-03-27T05:32:07.726Z,50.63
2018-03-27T05:34:36.373Z,50.33
2018-03-27T05:37:06.867Z,49.70
2018-03-27T05:39:34.759Z,49.43
2018-03-27T05:42:03.819Z,51.30
2018-03-27T05:44:31.830Z,51.00
2018-03-27T05:47:04.989Z,51.00
2018-03-27T05:49:33.039Z,47.97
2018-03-27T05:52:01.283Z,50.90
2018-03-27T05:54:29.302Z,48.57
2018-03-27T05:56:57.400Z,49.20
2018-03-27T05:59:26.069Z,49.27
2018-03-27T06:01:54.047Z,50.37
2018-03-27T06:04:22.996Z,48.10
2018-03-27T06:06:51.008Z,50.53
2018-03-27T06:09:20.433Z,50.07
2018-03-27T06:11:48.612Z,49.90
2018-03-27T06:14:16.515Z,50.60
2018-03-27T06:16:44.521Z,49.00
2018-03-27T06:19:12.315Z,48.10
2018-03-27T06:21:39.921Z,49.03
2018-03-27T06:24:07.581Z,48.13
2018-03-27T06:26:35.381Z,47.63
2018-03-27T06:29:06.850Z,46.43
2018-03-27T06:31:34.822Z,49.53
2018-03-27T06:34:02.881Z,47.87
2018-03-27T06:36:30.815Z,49.87
2018-03-27T06:38:58.807Z,49.47
2018-03-27T06:41:26.655Z,49.07
2018-03-27T06:43:54.625Z,48.00
2018-03-27T06:46:22.373Z,48.23
2018-03-27T06:48:51.221Z,47.90
2018-03-27T06:51:19.080Z,47.90
2018-03-27T06:53:47.085Z,48.83
2018-03-27T06:56:15.075Z,48.40
2018-03-27T06:58:42.964Z,49.20
2018-03-27T07:01:10.806Z,49.53
2018-03-27T07:03:38.648Z,46.27
2018-03-27T07:06:06.397Z,44.87
2018-03-27T07:08:34.393Z,46.10
2018-03-27T07:11:03.390Z,48.33
2018-03-27T07:13:31.253Z,44.67
2018-03-27T07:15:59.002Z,46.30
2018-03-27T07:18:27.662Z,46.83
2018-03-27T07:20:56.477Z,47.63
2018-03-27T07:23:24.590Z,48.07
2018-03-27T07:25:53.075Z,46.13
2018-03-27T07:28:21.098Z,48.37
2018-03-27T07:30:49.793Z,45.33
2018-03-27T07:33:17.823Z,47.37
2018-03-27T07:35:45.850Z,47.87
2018-03-27T07:38:13.726Z,45.90
2018-03-27T07:40:42.479Z,46.13
2018-03-27T07:43:10.426Z,44.67
2018-03-27T07:45:38.340Z,46.67
2018-03-27T07:48:06.195Z,45.27
2018-03-27T07:50:34.935Z,43.40
2018-03-27T07:53:03.035Z,44.23
2018-03-27T07:55:30.931Z,44.37
2018-03-27T07:57:58.867Z,44.13
2018-03-27T08:00:26.893Z,42.97
2018-03-27T08:02:55.681Z,44.23
2018-03-27T08:05:25.416Z,40.93
2018-03-27T08:07:53.411Z,41.20
2018-03-27T08:10:21.153Z,40.97
2018-03-27T08:12:49.143Z,41.10
2018-03-27T08:15:17.084Z,39.80
2018-03-27T08:17:45.573Z,39.87
2018-03-27T08:20:13.997Z,41.63
2018-03-27T08:22:43.273Z,40.90
2018-03-27T08:25:11.686Z,40.03
2018-03-27T08:27:39.615Z,42.53
2018-03-27T08:30:08.115Z,39.53
2018-03-27T08:32:36.961Z,37.70
2018-03-27T08:35:09.045Z,40.40
2018-03-27T08:37:38.095Z,40.10
2018-03-27T08:40:06.172Z,40.37
2018-03-27T08:42:34.219Z,39.77
2018-03-27T08:45:02.843Z,36.83
2018-03-27T08:47:30.849Z,37.13
2018-03-27T08:49:59.339Z,37.70
2018-03-27T08:52:28.077Z,40.33
2018-03-27T08:54:56.567Z,38.27
2018-03-27T08:57:24.527Z,38.50
2018-03-27T08:59:52.464Z,36.10
2018-03-27T09:02:20.469Z,38.53
2018-03-27T09:04:48.343Z,39.03
2018-03-27T09:07:16.651Z,39.47
2018-03-27T09:09:44.685Z,39.23
2018-03-27T09:12:12.695Z,37.77
2018-03-27T09:14:40.432Z,38.13
2018-03-27T09:17:08.242Z,35.93
2018-03-27T09:19:36.893Z,36.17
2018-03-27T09:22:04.759Z,36.13
2018-03-27T09:24:32.632Z,35.33
2018-03-27T09:27:00.478Z,35.00
2018-03-27T09:29:28.359Z,35.33
2018-03-27T09:31:56.343Z,36.40
2018-03-27T09:34:24.306Z,36.60
2018-03-27T09:36:52.296Z,33.67
2018-03-27T09:39:20.997Z,32.53
2018-03-27T09:41:49.060Z,31.83
2018-03-27T09:44:17.905Z,33.60
2018-03-27T09:46:45.933Z,31.80
2018-03-27T09:49:14.360Z,31.37
2018-03-27T09:51:42.234Z,32.67
2018-03-27T09:54:10.061Z,31.70
2018-03-27T09:56:37.868Z,33.83
2018-03-27T09:59:05.636Z,32.50
2018-03-27T10:01:33.515Z,33.20
2018-03-27T10:04:01.562Z,32.83
2018-03-27T10:06:29.321Z,34.33
2018-03-27T10:08:57.305Z,32.70
2018-03-27T10:11:25.236Z,32.97
2018-03-27T10:13:53.127Z,31.63
2018-03-27T10:16:21.177Z,31.97
2018-03-27T10:18:49.145Z,31.73
2018-03-27T10:21:17.159Z,32.87
2018-03-27T10:23:45.033Z,31.63
2018-03-27T10:26:13.059Z,32.37
2018-03-27T10:28:40.909Z,30.23
2018-03-27T10:31:09.139Z,30.70
2018-03-27T10:33:37.087Z,28.43
2018-03-27T10:36:04.908Z,27.07
2018-03-27T10:38:33.516Z,26.73
2018-03-27T10:41:02.177Z,29.10
2018-03-27T10:43:30.035Z,26.77
2018-03-27T10:45:57.957Z,28.13
2018-03-27T10:48:25.942Z,27.03
2018-03-27T10:50:53.859Z,25.60
2018-03-27T10:53:21.842Z,25.10
2018-03-27T10:55:49.846Z,27.37
2018-03-27T10:58:17.702Z,25.60
2018-03-27T11:00:45.681Z,26.37
2018-03-27T11:03:13.677Z,26.00
2018-03-27T11:05:41.775Z,26.07
2018-03-27T11:08:10.328Z,25.93
2018-03-27T11:10:38.114Z,26.33
2018-03-27T11:13:06.688Z,26.17
2018-03-27T11:15:35.405Z,25.97
2018-03-27T11:18:04.551Z,25.30
2018-03-27T11:20:32.424Z,26.50
2018-03-27T11:23:00.077Z,26.63
2018-03-27T11:25:28.041Z,25.03
2018-03-27T11:27:56.597Z,23.80
2018-03-27T11:30:24.557Z,23.37
2018-03-27T11:32:52.585Z,24.77
2018-03-27T11:35:20.488Z,26.27
2018-03-27T11:37:48.634Z,28.87
2018-03-27T11:40:16.771Z,28.20
2018-03-27T11:42:45.237Z,28.67
2018-03-27T11:45:13.193Z,28.97
2018-03-27T11:47:41.209Z,27.17
2018-03-27T11:50:09.223Z,27.90
2018-03-27T11:52:38.224Z,31.93
2018-03-27T11:55:06.064Z,34.07
2018-03-27T11:57:34.741Z,33.20
2018-03-27T12:00:02.727Z,34.93
2018-03-27T12:02:30.952Z,32.93
2018-03-27T12:04:58.636Z,33.93
2018-03-27T12:07:27.416Z,33.27
2018-03-27T12:09:55.316Z,31.53
2018-03-27T12:12:23.283Z,30.33
2018-03-27T12:14:51.304Z,29.20
2018-03-27T12:17:19.697Z,30.17
2018-03-27T12:19:47.917Z,28.70
2018-03-27T12:22:16.542Z,25.67
2018-03-27T12:24:44.406Z,25.33
2018-03-27T12:27:12.370Z,23.03
2018-03-27T12:29:42.136Z,23.97
2018-03-27T12:32:09.976Z,23.50
2018-03-27T12:34:38.763Z,22.17
2018-03-27T12:37:06.731Z,20.90
2018-03-27T12:39:34.620Z,20.07
2018-03-27T12:42:02.502Z,19.80
2018-03-27T12:44:30.452Z,19.07
2018-03-27T12:46:58.394Z,20.93
2018-03-27T12:49:26.301Z,24.07
2018-03-27T12:51:54.853Z,24.73
2018-03-27T12:54:22.680Z,24.47
2018-03-27T12:56:50.461Z,25.83
2018-03-27T12:59:18.331Z,24.90
2018-03-27T13:01:47.407Z,24.50
2018-03-27T13:04:15.438Z,26.37
2018-03-27T13:06:45.659Z,27.50
2018-03-27T13:09:14.425Z,26.90
2018-03-27T13:11:42.246Z,26.07
2018-03-27T13:14:10.255Z,29.00
2018-03-27T13:16:39.025Z,27.23
2018-03-27T13:19:06.985Z,28.00
2018-03-27T13:21:35.046Z,27.93
2018-03-27T13:24:03.031Z,28.53
2018-03-27T13:26:31.099Z,29.37
2018-03-27T13:28:59.045Z,27.40
2018-03-27T13:31:27.125Z,28.70
2018-03-27T13:33:55.045Z,28.33
2018-03-27T13:36:23.125Z,30.03
2018-03-27T13:38:51.044Z,29.03
2018-03-27T13:41:18.907Z,29.63
2018-03-27T13:43:46.832Z,29.47
2018-03-27T13:46:15.739Z,28.87
2018-03-27T13:48:43.604Z,28.17
2018-03-27T13:51:11.441Z,28.90
2018-03-27T13:53:40.077Z,27.57
2018-03-27T13:56:08.148Z,27.90
2018-03-27T13:58:36.077Z,28.67
2018-03-27T14:01:03.927Z,24.00
2018-03-27T14:03:32.394Z,24.00
2018-03-27T14:06:00.300Z,26.23
2018-03-27T14:08:28.310Z,24.57
2018-03-27T14:10:56.362Z,23.43
2018-03-27T14:13:24.096Z,22.13
2018-03-27T14:15:52.077Z,20.43
2018-03-27T14:18:19.983Z,20.53
2018-03-27T14:20:47.851Z,23.67
2018-03-27T14:23:15.620Z,23.10
2018-03-27T14:25:43.323Z,26.30
2018-03-27T14:28:11.745Z,27.87
2018-03-27T14:30:42.551Z,27.97
2018-03-27T14:33:10.508Z,27.27
2018-03-27T14:35:38.417Z,26.67
2018-03-27T14:38:06.513Z,27.70
2018-03-27T14:40:34.324Z,23.23
2018-03-27T14:43:02.311Z,22.77
2018-03-27T14:45:30.357Z,20.93
2018-03-27T14:47:59.076Z,19.90
2018-03-27T14:50:26.913Z,18.90
2018-03-27T14:52:54.937Z,18.77
2018-03-27T14:55:23.606Z,16.73
2018-03-27T14:57:51.624Z,17.07
2018-03-27T15:00:19.390Z,24.90
2018-03-27T15:02:47.270Z,15.67
2018-03-27T15:05:16.018Z,14.10
2018-03-27T15:07:43.932Z,14.00
2018-03-27T15:10:11.990Z,15.23
2018-03-27T15:12:39.994Z,14.17
2018-03-27T15:15:08.806Z,13.80
2018-03-27T15:17:36.805Z,16.47
2018-03-27T15:20:05.168Z,15.10
2018-03-27T15:22:33.227Z,13.90
2018-03-27T15:25:00.995Z,14.03
2018-03-27T15:27:29.032Z,13.83
2018-03-27T15:29:57.811Z,14.93
2018-03-27T15:32:25.737Z,14.17
2018-03-27T15:34:53.875Z,14.30
2018-03-27T15:37:22.499Z,14.97
2018-03-27T15:39:51.353Z,15.63
2018-03-27T15:42:19.201Z,14.90
2018-03-27T15:44:50.682Z,15.93
2018-03-27T15:47:18.582Z,15.80
2018-03-27T15:49:46.655Z,16.83
2018-03-27T15:52:14.600Z,17.27
2018-03-27T15:54:42.710Z,17.57
2018-03-27T15:57:12.188Z,19.47
2018-03-27T15:59:41.178Z,19.63
2018-03-27T16:02:09.080Z,19.20
2018-03-27T16:04:37.170Z,19.73
2018-03-27T16:07:06.194Z,19.50
2018-03-27T16:09:34.382Z,20.40
2018-03-27T16:12:02.444Z,18.43
2018-03-27T16:14:31.700Z,19.00
2018-03-27T16:16:59.944Z,19.87
2018-03-27T16:19:27.968Z,17.80
2018-03-27T16:21:55.916Z,18.83
2018-03-27T16:24:23.920Z,17.83
2018-03-27T16:26:52.912Z,16.80
2018-03-27T16:29:21.503Z,17.80
2018-03-27T16:31:50.150Z,19.53
2018-03-27T16:34:18.087Z,18.07
2018-03-27T16:36:46.000Z,17.20
2018-03-27T16:39:13.942Z,17.53
2018-03-27T16:41:41.725Z,18.07
2018-03-27T16:44:09.513Z,16.43
2018-03-27T16:46:37.604Z,16.23
2018-03-27T16:49:06.268Z,15.70
2018-03-27T16:51:35.063Z,17.70
2018-03-27T16:54:03.315Z,16.90
2018-03-27T16:56:31.605Z,16.00
2018-03-27T16:58:59.607Z,15.37
2018-03-27T17:01:27.668Z,16.07
2018-03-27T17:03:55.569Z,16.50
2018-03-27T17:06:24.105Z,23.50
2018-03-27T17:08:52.113Z,22.27
2018-03-27T17:11:20.677Z,21.70
2018-03-27T17:13:48.814Z,20.67
2018-03-27T17:16:17.453Z,20.50
2018-03-27T17:18:45.488Z,21.23
2018-03-27T17:21:13.662Z,20.20
2018-03-27T17:23:46.533Z,20.33
2018-03-27T17:26:14.494Z,21.27
2018-03-27T17:28:45.604Z,23.20
2018-03-27T17:31:14.165Z,20.80
2018-03-27T17:33:43.027Z,23.27
2018-03-27T17:36:11.023Z,23.30
2018-03-27T17:38:39.054Z,21.53
2018-03-27T17:41:07.514Z,21.50
2018-03-27T17:43:35.552Z,22.23
2018-03-27T17:46:03.319Z,21.57
2018-03-27T17:48:32.161Z,21.00
2018-03-27T17:51:00.125Z,19.30
2018-03-27T17:53:28.836Z,22.20
2018-03-27T17:55:57.463Z,20.43
2018-03-27T17:58:25.447Z,20.77
2018-03-27T18:00:53.480Z,20.27
2018-03-27T18:03:22.834Z,20.57
2018-03-27T18:05:50.804Z,19.77
2018-03-27T18:08:19.737Z,21.90
2018-03-27T18:10:50.021Z,21.97
2018-03-27T18:13:18.069Z,23.90
2018-03-27T18:15:46.245Z,19.20
2018-03-27T18:18:14.153Z,20.90
2018-03-27T18:20:42.590Z,20.03
2018-03-27T18:23:10.501Z,19.50
2018-03-27T18:25:38.750Z,20.63
2018-03-27T18:28:07.635Z,20.83
2018-03-27T18:30:38.398Z,19.67
2018-03-27T18:33:06.391Z,20.73
2018-03-27T18:35:34.351Z,20.87
2018-03-27T18:38:02.343Z,21.47
2018-03-27T18:40:30.279Z,21.50
2018-03-27T18:42:58.280Z,22.13
2018-03-27T18:45:27.744Z,22.17
2018-03-27T18:47:55.809Z,22.20
2018-03-27T18:50:24.456Z,21.03
2018-03-27T18:52:52.315Z,20.83
2018-03-27T18:55:21.854Z,22.47
2018-03-27T18:57:49.829Z,20.93
2018-03-27T19:00:18.761Z,23.43
2018-03-27T19:02:46.827Z,32.70
2018-03-27T19:05:14.908Z,22.20
2018-03-27T19:07:42.926Z,39.27
2018-03-27T19:10:12.836Z,21.33
2018-03-27T19:12:40.791Z,28.07
2018-03-27T19:15:08.480Z,24.57
2018-03-27T19:17:37.322Z,18.97
2018-03-27T19:20:05.210Z,21.53
2018-03-27T19:22:33.155Z,22.27
2018-03-27T19:25:00.977Z,23.53
2018-03-27T19:27:29.119Z,39.67
2018-03-27T19:29:57.846Z,32.67
2018-03-27T19:32:25.876Z,34.03
2018-03-27T19:34:53.875Z,32.37
2018-03-27T19:37:22.784Z,25.23
2018-03-27T19:39:50.661Z,20.57
2018-03-27T19:42:18.632Z,19.73
2018-03-27T19:44:46.526Z,23.60
2018-03-27T19:47:14.537Z,25.90
2018-03-27T19:49:42.285Z,23.10
2018-03-27T19:52:10.347Z,25.07
2018-03-27T19:54:38.232Z,20.60
2018-03-27T19:57:06.274Z,21.00
2018-03-27T19:59:35.024Z,20.33
2018-03-27T20:02:03.018Z,19.77
2018-03-27T20:04:31.582Z,19.37
2018-03-27T20:07:00.265Z,19.10
2018-03-27T20:09:28.333Z,18.70
2018-03-27T20:11:57.031Z,18.40
2018-03-27T20:14:25.335Z,19.87
2018-03-27T20:16:53.300Z,26.43
2018-03-27T20:19:21.237Z,43.07
2018-03-27T20:21:49.212Z,34.70
2018-03-27T20:24:17.138Z,52.27
2018-03-27T20:26:45.921Z,33.63
2018-03-27T20:29:13.917Z,28.73
2018-03-27T20:31:42.955Z,26.27
2018-03-27T20:34:10.840Z,24.63
2018-03-27T20:36:38.675Z,31.20
2018-03-27T20:39:06.593Z,32.33
2018-03-27T20:41:34.421Z,31.87
2018-03-27T20:44:02.148Z,27.93
2018-03-27T20:46:30.111Z,32.10
2018-03-27T20:48:58.097Z,37.40
2018-03-27T20:51:25.885Z,33.90
2018-03-27T20:53:53.858Z,27.50
2018-03-27T20:56:21.730Z,28.73
2018-03-27T20:58:50.729Z,27.83
2018-03-27T21:01:18.624Z,27.93
2018-03-27T21:03:46.701Z,28.20
2018-03-27T21:06:14.656Z,24.33
2018-03-27T21:08:42.595Z,25.20
2018-03-27T21:11:10.988Z,23.50
2018-03-27T21:13:39.020Z,25.40
2018-03-27T21:16:07.850Z,23.37
2018-03-27T21:18:35.694Z,22.50
2018-03-27T21:21:03.483Z,24.10
2018-03-27T21:23:31.335Z,25.13
2018-03-27T21:25:59.378Z,25.03
2018-03-27T21:28:28.056Z,33.50
2018-03-27T21:30:55.948Z,30.20
2018-03-27T21:33:25.859Z,24.47
2018-03-27T21:35:53.772Z,21.83
2018-03-27T21:38:21.715Z,23.90
2018-03-27T21:40:49.810Z,23.17
2018-03-27T21:43:17.816Z,26.70
2018-03-27T21:45:46.532Z,24.70
2018-03-27T21:48:14.437Z,21.00
2018-03-27T21:50:43.722Z,22.20
2018-03-27T21:53:11.662Z,22.40
2018-03-27T21:55:39.432Z,21.20
2018-03-27T21:58:08.785Z,21.90
2018-03-27T22:00:37.668Z,19.43
2018-03-27T22:03:06.326Z,20.40
2018-03-27T22:05:35.069Z,18.97
2018-03-27T22:08:03.754Z,19.13
2018-03-27T22:10:31.663Z,18.20
2018-03-27T22:12:59.624Z,19.90
2018-03-27T22:15:27.433Z,18.87
2018-03-27T22:17:57.143Z,18.93
2018-03-27T22:20:26.402Z,17.67
2018-03-27T22:22:54.348Z,18.67
2018-03-27T22:25:22.114Z,18.30
2018-03-27T22:27:49.825Z,17.47
2018-03-27T22:30:18.410Z,18.10
2018-03-27T22:32:46.108Z,18.10
2018-03-27T22:35:14.612Z,17.47
2018-03-27T22:37:43.355Z,16.83
2018-03-27T22:40:11.230Z,18.17
2018-03-27T22:42:39.076Z,18.03
2018-03-27T22:45:06.938Z,17.53
2018-03-27T22:47:34.894Z,16.93
2018-03-27T22:50:03.486Z,18.43
2018-03-27T22:52:32.180Z,17.07
2018-03-27T22:55:00.014Z,18.00
2018-03-27T22:57:27.793Z,17.10
2018-03-27T22:59:55.500Z,18.70
2018-03-27T23:02:23.280Z,16.83
2018-03-27T23:04:50.952Z,17.27
2018-03-27T23:07:18.717Z,16.57
2018-03-27T23:09:47.242Z,18.03
2018-03-27T23:12:15.078Z,18.63
2018-03-27T23:14:42.857Z,18.33
2018-03-27T23:17:10.500Z,20.27
2018-03-27T23:19:38.250Z,19.10
2018-03-27T23:22:06.776Z,19.47
2018-03-27T23:24:34.674Z,17.60
2018-03-27T23:27:02.435Z,19.50
2018-03-27T23:29:30.136Z,19.80
2018-03-27T23:31:58.492Z,18.23
2018-03-27T23:34:28.060Z,18.27
2018-03-27T23:36:55.692Z,18.67
2018-03-27T23:39:24.013Z,18.37
2018-03-27T23:41:52.541Z,17.23
2018-03-27T23:44:20.960Z,18.77
2018-03-27T23:46:48.792Z,18.17
2018-03-27T23:49:16.770Z,18.90
2018-03-27T23:51:44.590Z,18.77
2018-03-27T23:54:13.307Z,19.57
2018-03-27T23:56:41.243Z,19.87
2018-03-27T23:59:08.990Z,19.27
